createdAt,value
2023-02-11T00:00:51.350Z,61.55
2023-02-11T00:03:55.785Z,63.21
2023-02-11T00:06:59.708Z,63.53
2023-02-11T00:10:03.816Z,63.71
2023-02-11T00:13:07.631Z,63.60
2023-02-11T00:16:11.440Z,62.00
2023-02-11T00:19:15.412Z,61.19
2023-02-11T00:22:20.829Z,60.43
2023-02-11T00:25:25.026Z,61.06
2023-02-11T00:28:29.138Z,60.66
2023-02-11T00:31:32.943Z,60.10
2023-02-11T00:34:36.760Z,60.35
2023-02-11T00:37:40.892Z,61.19
2023-02-11T00:40:44.727Z,60.58
2023-02-11T00:43:48.705Z,60.14
2023-02-11T00:46:52.818Z,60.35
2023-02-11T00:49:56.954Z,59.96
2023-02-11T00:53:00.947Z,60.43
2023-02-11T00:56:04.876Z,60.27
2023-02-11T00:59:08.979Z,60.23
2023-02-11T01:02:15.105Z,60.12
2023-02-11T01:05:19.607Z,59.81
2023-02-11T01:08:23.719Z,60.57
2023-02-11T01:11:27.566Z,60.26
2023-02-11T01:14:32.664Z,60.41
2023-02-11T01:17:36.870Z,60.54
2023-02-11T01:20:40.782Z,60.41
2023-02-11T01:23:44.782Z,60.25
2023-02-11T01:26:48.797Z,60.34
2023-02-11T01:29:52.315Z,60.22
2023-02-11T01:32:56.368Z,59.90
2023-02-11T01:36:00.558Z,59.97
2023-02-11T01:39:04.182Z,59.09
2023-02-11T01:42:08.069Z,58.70
2023-02-11T01:45:12.152Z,60.29
2023-02-11T01:48:16.389Z,62.21
2023-02-11T01:51:20.182Z,62.86
2023-02-11T01:54:24.372Z,62.07
2023-02-11T01:57:28.135Z,61.22
2023-02-11T02:00:32.322Z,62.26
2023-02-11T02:03:38.546Z,61.99
2023-02-11T02:06:42.935Z,60.56
2023-02-11T02:09:48.318Z,59.94
2023-02-11T02:12:52.531Z,61.03
2023-02-11T02:15:56.519Z,63.17
2023-02-11T02:19:00.590Z,63.90
2023-02-11T02:22:04.803Z,64.00
2023-02-11T02:25:08.842Z,63.57
2023-02-11T02:28:12.870Z,65.97
2023-02-11T02:31:16.870Z,65.19
2023-02-11T02:34:20.585Z,62.29
2023-02-11T02:37:26.622Z,60.87
2023-02-11T02:40:30.594Z,62.28
2023-02-11T02:43:34.423Z,63.38
2023-02-11T02:46:38.641Z,61.81
2023-02-11T02:49:42.563Z,60.99
2023-02-11T02:52:46.488Z,62.33
2023-02-11T02:55:52.138Z,61.66
2023-02-11T02:58:55.826Z,61.83
2023-02-11T03:01:59.777Z,61.66
2023-02-11T03:05:03.859Z,60.73
2023-02-11T03:08:07.870Z,60.55
2023-02-11T03:11:11.610Z,60.93
2023-02-11T03:14:17.575Z,61.78
2023-02-11T03:17:21.462Z,62.35
2023-02-11T03:20:25.470Z,62.70
2023-02-11T03:23:29.426Z,64.41
2023-02-11T03:26:33.306Z,64.82
2023-02-11T03:29:37.267Z,64.50
2023-02-11T03:32:41.416Z,66.07
2023-02-11T03:35:44.976Z,64.80
2023-02-11T03:38:50.892Z,64.57
2023-02-11T03:41:54.816Z,64.48
2023-02-11T03:45:01.562Z,64.72
2023-02-11T03:48:05.531Z,64.53
2023-02-11T03:51:11.258Z,65.91
2023-02-11T03:54:15.310Z,65.13
2023-02-11T03:57:19.204Z,66.07
2023-02-11T04:00:23.114Z,65.51
2023-02-11T04:03:29.401Z,63.83
2023-02-11T04:06:33.231Z,63.05
2023-02-11T04:09:37.369Z,62.29
2023-02-11T04:12:41.355Z,61.54
2023-02-11T04:15:48.783Z,61.34
2023-02-11T04:18:55.977Z,61.84
2023-02-11T04:21:59.918Z,60.85
2023-02-11T04:25:05.909Z,60.48
2023-02-11T04:28:11.512Z,60.55
2023-02-11T04:31:15.863Z,60.49
2023-02-11T04:34:19.823Z,60.16
2023-02-11T04:37:23.607Z,60.11
2023-02-11T04:40:27.629Z,60.21
2023-02-11T04:43:31.901Z,59.73
2023-02-11T04:46:36.123Z,59.88
2023-02-11T04:49:40.024Z,59.49
2023-02-11T04:52:43.976Z,59.35
2023-02-11T04:55:51.366Z,58.99
2023-02-11T04:58:55.328Z,58.65
2023-02-11T05:01:59.336Z,58.84
2023-02-11T05:05:04.321Z,59.16
2023-02-11T05:08:08.186Z,59.36
2023-02-11T05:11:12.596Z,58.89
2023-02-11T05:14:16.504Z,58.50
2023-02-11T05:17:20.677Z,58.65
2023-02-11T05:20:24.608Z,58.60
2023-02-11T05:23:28.521Z,58.81
2023-02-11T05:26:32.427Z,58.96
2023-02-11T05:29:38.040Z,58.75
2023-02-11T05:32:42.155Z,58.72
2023-02-11T05:35:46.101Z,58.89
2023-02-11T05:38:51.998Z,59.62
2023-02-11T05:41:55.916Z,60.45
2023-02-11T05:45:00.224Z,62.28
2023-02-11T05:48:04.494Z,63.15
2023-02-11T05:51:08.662Z,62.81
2023-02-11T05:54:12.669Z,61.87
2023-02-11T05:57:16.630Z,61.03
2023-02-11T06:00:26.679Z,60.47
2023-02-11T06:03:30.787Z,60.97
2023-02-11T06:06:34.787Z,60.53
2023-02-11T06:09:38.917Z,60.45
2023-02-11T06:12:43.529Z,60.37
2023-02-11T06:15:47.407Z,61.22
2023-02-11T06:18:51.270Z,62.15
2023-02-11T06:21:55.326Z,63.23
2023-02-11T06:25:02.054Z,62.48
2023-02-11T06:28:06.028Z,62.70
2023-02-11T06:31:10.087Z,63.43
2023-02-11T06:34:13.874Z,64.53
2023-02-11T06:37:18.129Z,64.00
2023-02-11T06:40:22.206Z,63.45
2023-02-11T06:43:26.207Z,64.83
2023-02-11T06:46:30.126Z,66.81
2023-02-11T06:49:34.202Z,66.56
2023-02-11T06:52:40.383Z,64.91
2023-02-11T06:55:44.529Z,64.48
2023-02-11T06:58:48.554Z,64.19
2023-02-11T07:01:52.505Z,65.41
2023-02-11T07:04:56.485Z,63.84
2023-02-11T07:08:02.063Z,63.35
2023-02-11T07:11:08.062Z,64.57
2023-02-11T07:14:12.199Z,63.70
2023-02-11T07:17:16.155Z,63.53
2023-02-11T07:20:22.206Z,64.28
2023-02-11T07:23:26.349Z,64.55
2023-02-11T07:26:30.568Z,64.41
2023-02-11T07:29:34.473Z,63.04
2023-02-11T07:32:38.455Z,62.94
2023-02-11T07:35:42.815Z,63.64
2023-02-11T07:38:46.861Z,63.51
2023-02-11T07:41:50.983Z,64.06
2023-02-11T07:44:57.018Z,64.17
2023-02-11T07:48:05.496Z,66.38
2023-02-11T07:51:09.593Z,66.98
2023-02-11T07:54:13.436Z,66.32
2023-02-11T07:57:17.375Z,66.63
2023-02-11T08:00:23.492Z,65.64
2023-02-11T08:03:27.681Z,65.41
2023-02-11T08:06:31.700Z,66.10
2023-02-11T08:09:37.362Z,65.47
2023-02-11T08:12:47.425Z,65.68
2023-02-11T08:15:51.826Z,65.43
2023-02-11T08:18:55.993Z,65.95
2023-02-11T08:22:01.426Z,65.98
2023-02-11T08:25:05.585Z,66.94
2023-02-11T08:28:09.585Z,65.82
2023-02-11T08:31:13.590Z,64.97
2023-02-11T08:34:17.517Z,66.11
2023-02-11T08:37:23.707Z,64.88
2023-02-11T08:40:27.781Z,63.41
2023-02-11T08:43:33.826Z,63.15
2023-02-11T08:46:42.928Z,63.74
2023-02-11T08:49:46.974Z,63.10
2023-02-11T08:52:52.237Z,62.42
2023-02-11T08:55:56.473Z,62.49
2023-02-11T08:59:00.587Z,63.53
2023-02-11T09:02:09.335Z,63.68
2023-02-11T09:05:13.294Z,63.46
2023-02-11T09:08:17.245Z,61.59
2023-02-11T09:11:21.172Z,60.74
2023-02-11T09:14:25.218Z,61.68
2023-02-11T09:17:29.441Z,60.31
2023-02-11T09:20:33.428Z,59.73
2023-02-11T09:23:37.306Z,59.06
2023-02-11T09:26:41.279Z,58.15
2023-02-11T09:29:45.374Z,59.05
2023-02-11T09:32:49.409Z,58.32
2023-02-11T09:35:53.359Z,58.99
2023-02-11T09:38:58.752Z,58.71
2023-02-11T09:42:02.782Z,60.61
2023-02-11T09:45:06.924Z,61.83
2023-02-11T09:48:11.010Z,60.89
2023-02-11T09:51:15.107Z,60.87
2023-02-11T09:54:18.981Z,60.28
2023-02-11T09:57:28.550Z,59.75
2023-02-11T10:00:33.406Z,59.87
2023-02-11T10:03:37.345Z,60.06
2023-02-11T10:06:41.442Z,59.58
2023-02-11T10:09:45.543Z,59.21
2023-02-11T10:12:49.679Z,59.44
2023-02-11T10:15:53.685Z,59.25
2023-02-11T10:18:57.539Z,57.61
2023-02-11T10:22:03.555Z,58.14
2023-02-11T10:25:07.625Z,60.23
2023-02-11T10:28:12.134Z,59.85
2023-02-11T10:31:15.850Z,59.25
2023-02-11T10:34:21.303Z,58.23
2023-02-11T10:37:25.618Z,60.55
2023-02-11T10:40:31.455Z,60.00
2023-02-11T10:43:35.512Z,58.16
2023-02-11T10:46:39.516Z,60.11
2023-02-11T10:49:43.490Z,59.07
2023-02-11T10:52:47.485Z,59.95
2023-02-11T10:55:51.807Z,59.83
2023-02-11T10:58:55.843Z,60.13
2023-02-11T11:01:59.849Z,61.21
2023-02-11T11:05:03.769Z,60.21
2023-02-11T11:08:07.731Z,60.05
2023-02-11T11:11:11.784Z,60.88
2023-02-11T11:14:17.007Z,60.13
2023-02-11T11:17:20.852Z,58.70
2023-02-11T11:20:27.199Z,58.48
2023-02-11T11:23:31.054Z,58.93
2023-02-11T11:26:35.472Z,58.01
2023-02-11T11:29:41.405Z,58.33
2023-02-11T11:32:45.252Z,57.94
2023-02-11T11:35:49.561Z,57.16
2023-02-11T11:38:53.591Z,57.16
2023-02-11T11:41:57.873Z,56.65
2023-02-11T11:45:02.026Z,55.70
2023-02-11T11:48:05.840Z,54.90
2023-02-11T11:51:09.867Z,55.36
2023-02-11T11:54:14.117Z,56.00
2023-02-11T11:57:17.871Z,56.40
2023-02-11T12:00:23.149Z,55.23
2023-02-11T12:03:27.410Z,55.17
2023-02-11T12:06:36.574Z,55.23
2023-02-11T12:09:42.878Z,54.42
2023-02-11T12:12:47.004Z,54.43
2023-02-11T12:15:50.941Z,54.27
2023-02-11T12:18:54.641Z,55.77
2023-02-11T12:21:59.128Z,54.93
2023-02-11T12:25:03.096Z,55.06
2023-02-11T12:28:06.872Z,55.94
2023-02-11T12:34:33.236Z,55.36
2023-02-11T12:37:37.358Z,54.34
2023-02-11T12:40:41.357Z,52.46
2023-02-11T12:43:45.338Z,52.60
2023-02-11T12:46:49.678Z,52.72
2023-02-11T12:49:53.737Z,54.03
2023-02-11T12:52:57.991Z,52.76
2023-02-11T12:56:01.937Z,53.41
2023-02-11T12:59:07.469Z,53.82
2023-02-11T13:02:12.819Z,52.47
2023-02-11T13:05:17.176Z,52.46
2023-02-11T13:08:21.104Z,52.35
2023-02-11T13:11:25.052Z,52.79
2023-02-11T13:14:31.155Z,53.04
2023-02-11T13:17:35.015Z,52.99
2023-02-11T13:20:38.970Z,54.74
2023-02-11T13:23:43.065Z,54.08
2023-02-11T13:26:47.139Z,53.70
2023-02-11T13:29:51.112Z,53.21
2023-02-11T13:32:55.179Z,52.69
2023-02-11T13:35:59.389Z,52.28
2023-02-11T13:39:03.568Z,52.80
2023-02-11T13:42:07.310Z,52.15
2023-02-11T13:45:11.479Z,52.13
2023-02-11T13:48:15.239Z,52.17
2023-02-11T13:51:19.132Z,53.35
2023-02-11T13:54:23.110Z,53.20
2023-02-11T13:57:27.097Z,52.75
2023-02-11T14:00:30.917Z,52.16
